首页
METAR-TAF:

METAR-TAF

机场 :

Cahokia / 圣路易斯, 伊利诺伊州, 美国

纬度: 38-34-15N, 经度: 090-09-22W, 海拔: 126米

当前天气观测

该预报发布于54分钟前的23:00 UTC
风速25节,风向西北,有时为32节阵风
温度 8°C
湿度 81%
气压 1007 hPa
能見度: 16.1公里
多云层高于1500英尺
多云层高于3300英尺
阴天层高于4200英尺

METAR: KCPS 092300Z 31025G32KT 10SM BKN015 BKN033 OVC042 08/05 A2975 RMK AO2 PK WND 30032/2257 PRESRR T00780050

时间: 17:54 (23:54 UTC)

预报

该预报发布于29分钟前的23:25 UTC
预报有效从10日的 00点(UTC)到 10日的 24点(UTC)
风速15节,风向西转西北,有时为25节阵风
能見度: 9.7公里
阴天层高于1200英尺
轻雾
从 10日的 0200点(UTC)
风速13节,风向西转西北,有时为25节阵风
能見度: 10公里
多云层高于6000英尺
从 10日的 1100点(UTC)
风速10节,风向西转西北
能見度: 10公里
多云层高于25000英尺

TAF: KCPS 092325Z 1000/1024 30015G25KT 6SM BR OVC012 FM100200 30013G25KT P6SM BKN060 FM101100 30010KT P6SM BKN250

超过4000个机场的气象观测和天气预报(METAR&TAF报告)。

可查询的气象台以黄色和红色小点在地图上表示。

将鼠标移到小点上方,可查看气象台名称。

然后点击查看天气观测和预报。

如需切换地图:点击带黑十字的绿色按钮放大地图;点击带横线的绿色按钮缩小地图;或者点击绿色箭头查看邻近地区的地图。


METAR-TAF: